createdAt,value
2023-03-25T00:01:44.153Z,4.25
2023-03-25T00:04:15.161Z,4.20
2023-03-25T00:06:48.580Z,3.63
2023-03-25T00:09:20.686Z,4.25
2023-03-25T00:11:52.496Z,4.97
2023-03-25T00:14:24.732Z,4.53
2023-03-25T00:16:55.374Z,6.20
2023-03-25T00:19:29.927Z,5.33
2023-03-25T00:22:01.065Z,4.72
2023-03-25T00:24:33.719Z,4.33
2023-03-25T00:27:05.784Z,4.97
2023-03-25T00:29:37.819Z,4.55
2023-03-25T00:32:10.353Z,3.83
2023-03-25T00:34:44.369Z,4.30
2023-03-25T00:37:21.973Z,5.80
2023-03-25T00:39:55.354Z,3.90
2023-03-25T00:42:28.974Z,3.95
2023-03-25T00:44:59.445Z,4.97
2023-03-25T00:47:31.512Z,4.35
2023-03-25T00:50:03.770Z,3.90
2023-03-25T00:52:34.484Z,4.62
2023-03-25T00:55:07.015Z,3.17
2023-03-25T00:57:38.059Z,3.72
2023-03-25T01:00:11.306Z,4.22
2023-03-25T01:02:42.580Z,4.62
2023-03-25T01:05:15.714Z,3.65
2023-03-25T01:07:47.898Z,3.65
2023-03-25T01:10:20.695Z,3.08
2023-03-25T01:12:52.468Z,2.92
2023-03-25T01:15:23.242Z,3.12
2023-03-25T01:17:53.997Z,4.97
2023-03-25T01:20:26.235Z,3.52
2023-03-25T01:22:59.514Z,2.95
2023-03-25T01:25:30.202Z,3.12
2023-03-25T01:28:07.883Z,3.00
2023-03-25T01:30:34.236Z,4.20
2023-03-25T01:33:06.643Z,3.52
2023-03-25T01:35:37.100Z,4.13
2023-03-25T01:38:07.834Z,3.87
2023-03-25T01:40:38.414Z,4.47
2023-03-25T01:43:13.340Z,3.20
2023-03-25T01:45:45.300Z,2.80
2023-03-25T01:48:19.108Z,3.87
2023-03-25T01:50:55.603Z,3.12
2023-03-25T01:53:31.274Z,3.30
2023-03-25T01:56:05.651Z,2.55
2023-03-25T01:58:38.966Z,4.77
2023-03-25T02:01:11.355Z,2.83
2023-03-25T02:03:45.130Z,4.27
2023-03-25T02:06:33.108Z,4.53
2023-03-25T02:09:06.984Z,3.98
2023-03-25T02:11:39.555Z,5.60
2023-03-25T02:14:17.256Z,4.75
2023-03-25T02:16:58.492Z,4.37
2023-03-25T02:19:41.114Z,4.30
2023-03-25T02:22:20.895Z,4.73
2023-03-25T02:25:28.036Z,2.75
2023-03-25T02:28:16.442Z,3.07
2023-03-25T02:31:19.037Z,2.92
2023-03-25T02:34:17.149Z,3.80
2023-03-25T02:37:00.569Z,2.45
2023-03-25T02:39:54.258Z,3.40
2023-03-25T02:42:37.444Z,4.37
2023-03-25T02:45:16.997Z,3.75
2023-03-25T02:47:50.625Z,2.65
2023-03-25T02:50:28.585Z,3.53
2023-03-25T02:53:02.434Z,3.22
2023-03-25T02:55:36.080Z,4.60
2023-03-25T02:58:09.881Z,2.33
2023-03-25T03:00:40.803Z,3.80
2023-03-25T03:03:11.692Z,4.97
2023-03-25T03:05:48.070Z,3.55
2023-03-25T03:08:30.398Z,3.17
2023-03-25T03:11:27.433Z,3.83
2023-03-25T03:14:08.558Z,3.03
2023-03-25T03:17:00.562Z,2.22
2023-03-25T03:19:52.862Z,3.67
2023-03-25T03:22:42.134Z,3.00
2023-03-25T03:25:22.383Z,3.57
2023-03-25T03:28:21.928Z,3.37
2023-03-25T03:31:07.177Z,2.95
2023-03-25T03:33:53.974Z,3.07
2023-03-25T03:36:31.724Z,5.65
2023-03-25T03:39:07.379Z,2.80
2023-03-25T03:41:41.249Z,4.47
2023-03-25T03:44:14.981Z,3.97
2023-03-25T03:46:58.977Z,7.70
2023-03-25T03:49:33.744Z,4.37
2023-03-25T03:52:09.864Z,3.47
2023-03-25T03:54:43.734Z,3.42
2023-03-25T03:57:29.922Z,4.60
2023-03-25T04:00:10.796Z,3.70
2023-03-25T04:02:53.874Z,4.67
2023-03-25T04:05:27.153Z,4.45
2023-03-25T04:08:04.181Z,4.00
2023-03-25T04:10:57.379Z,2.33
2023-03-25T04:13:32.054Z,2.47
2023-03-25T04:16:04.236Z,4.60
2023-03-25T04:18:34.710Z,4.33
2023-03-25T04:21:07.044Z,3.27
2023-03-25T04:23:39.167Z,3.33
2023-03-25T04:26:12.688Z,5.30
2023-03-25T04:28:44.685Z,2.58
2023-03-25T04:31:16.885Z,3.00
2023-03-25T04:33:48.660Z,6.35
2023-03-25T04:36:20.126Z,3.37
2023-03-25T04:38:53.285Z,2.60
2023-03-25T04:41:24.500Z,3.22
2023-03-25T04:43:55.480Z,4.37
2023-03-25T04:46:26.874Z,2.93
2023-03-25T04:48:58.469Z,2.37
2023-03-25T04:51:30.671Z,2.87
2023-03-25T04:54:01.294Z,3.37
2023-03-25T04:56:31.785Z,2.33
2023-03-25T04:59:02.999Z,3.85
2023-03-25T05:01:37.848Z,3.85
2023-03-25T05:04:10.928Z,2.97
2023-03-25T05:06:44.670Z,3.50
2023-03-25T05:09:19.098Z,3.40
2023-03-25T05:11:52.739Z,4.53
2023-03-25T05:14:23.958Z,3.72
2023-03-25T05:16:56.177Z,3.55
2023-03-25T05:19:29.269Z,3.33
2023-03-25T05:22:01.397Z,2.27
2023-03-25T05:24:32.135Z,3.23
2023-03-25T05:27:04.238Z,2.27
2023-03-25T05:29:34.949Z,4.60
2023-03-25T05:32:07.261Z,3.17
2023-03-25T05:34:38.700Z,4.43
2023-03-25T05:37:10.205Z,4.33
2023-03-25T05:39:43.970Z,2.47
2023-03-25T05:42:13.360Z,7.67
2023-03-25T05:44:45.829Z,2.95
2023-03-25T05:47:16.763Z,3.50
2023-03-25T05:49:47.879Z,2.52
2023-03-25T05:52:20.104Z,1.35
2023-03-25T05:54:51.786Z,2.75
2023-03-25T05:57:22.424Z,2.50
2023-03-25T05:59:55.718Z,2.02
2023-03-25T06:02:26.286Z,2.75
2023-03-25T06:04:57.148Z,1.87
2023-03-25T06:07:27.685Z,3.25
2023-03-25T06:09:59.166Z,1.50
2023-03-25T06:12:31.436Z,3.10
2023-03-25T06:15:01.963Z,3.83
2023-03-25T06:17:34.853Z,2.30
2023-03-25T06:20:12.369Z,2.17
2023-03-25T06:22:46.685Z,1.82
2023-03-25T06:25:20.652Z,1.70
2023-03-25T06:27:52.145Z,1.72
2023-03-25T06:30:23.165Z,1.70
2023-03-25T06:32:55.583Z,1.83
2023-03-25T06:35:26.352Z,2.10
2023-03-25T06:37:57.039Z,1.70
2023-03-25T06:40:27.525Z,2.22
2023-03-25T06:42:58.149Z,2.15
2023-03-25T06:45:30.786Z,1.07
2023-03-25T06:48:01.946Z,2.70
2023-03-25T06:50:33.405Z,1.55
2023-03-25T06:53:05.636Z,2.40
2023-03-25T06:55:36.159Z,1.98
2023-03-25T06:58:07.774Z,3.13
2023-03-25T07:00:39.085Z,1.65
2023-03-25T07:03:10.824Z,1.57
2023-03-25T07:05:43.606Z,1.20
2023-03-25T07:08:14.175Z,2.55
2023-03-25T07:10:44.704Z,1.87
2023-03-25T07:13:16.750Z,1.12
2023-03-25T07:15:48.611Z,1.85
2023-03-25T07:18:19.386Z,2.52
2023-03-25T07:20:49.876Z,2.45
2023-03-25T07:23:21.858Z,1.82
2023-03-25T07:25:53.483Z,2.00
2023-03-25T07:28:25.591Z,2.05
2023-03-25T07:30:56.027Z,3.12
2023-03-25T07:33:26.535Z,5.10
2023-03-25T07:36:01.154Z,2.25
2023-03-25T07:38:32.180Z,2.22
2023-03-25T07:41:10.532Z,3.65
2023-03-25T07:43:45.453Z,2.02
2023-03-25T07:46:16.894Z,2.37
2023-03-25T07:48:49.046Z,3.45
2023-03-25T07:51:19.782Z,3.02
2023-03-25T07:53:52.574Z,3.40
2023-03-25T07:56:25.071Z,3.65
2023-03-25T07:58:56.039Z,3.60
2023-03-25T08:01:29.378Z,3.65
2023-03-25T08:03:59.142Z,4.30
2023-03-25T08:06:29.614Z,3.45
2023-03-25T08:09:04.533Z,2.47
2023-03-25T08:11:35.446Z,2.08
2023-03-25T08:14:09.038Z,2.52
2023-03-25T08:16:42.144Z,3.70
2023-03-25T08:19:13.066Z,2.27
2023-03-25T08:21:45.203Z,4.45
2023-03-25T08:24:15.820Z,2.05
2023-03-25T08:26:48.219Z,2.20
2023-03-25T08:29:23.002Z,4.45
2023-03-25T08:31:53.602Z,2.40
2023-03-25T08:34:28.617Z,4.00
2023-03-25T08:36:59.079Z,1.50
2023-03-25T08:39:35.465Z,2.97
2023-03-25T08:42:11.840Z,1.95
2023-03-25T08:44:53.324Z,2.15
2023-03-25T08:47:25.138Z,2.40
2023-03-25T08:49:59.466Z,2.47
2023-03-25T08:52:31.317Z,2.08
2023-03-25T08:55:02.186Z,2.42
2023-03-25T08:57:32.796Z,1.77
2023-03-25T09:00:13.584Z,2.20
2023-03-25T09:02:45.994Z,2.15
2023-03-25T09:05:16.722Z,1.17
2023-03-25T09:07:47.808Z,1.40
2023-03-25T09:10:18.884Z,1.50
2023-03-25T09:12:50.392Z,1.50
2023-03-25T09:15:21.193Z,1.92
2023-03-25T09:17:55.935Z,1.40
2023-03-25T09:20:28.362Z,1.70
2023-03-25T09:23:02.114Z,2.50
2023-03-25T09:25:32.786Z,2.35
2023-03-25T09:28:05.947Z,1.70
2023-03-25T09:30:36.978Z,2.00
2023-03-25T09:33:10.216Z,1.57
2023-03-25T09:35:44.067Z,3.17
2023-03-25T09:38:14.792Z,2.30
2023-03-25T09:40:47.628Z,2.20
2023-03-25T09:43:41.020Z,2.30
2023-03-25T09:46:11.580Z,1.50
2023-03-25T09:48:44.963Z,2.05
2023-03-25T09:51:21.753Z,3.08
2023-03-25T09:54:19.606Z,2.67
2023-03-25T09:56:51.997Z,1.72
2023-03-25T09:59:28.633Z,1.40
2023-03-25T10:02:05.081Z,1.32
2023-03-25T10:04:54.592Z,2.58
2023-03-25T10:07:46.056Z,1.00
2023-03-25T10:10:40.353Z,2.77
2023-03-25T10:13:42.999Z,1.42
2023-03-25T10:16:20.893Z,1.30
2023-03-25T10:19:14.254Z,2.05
2023-03-25T10:22:10.114Z,1.60
2023-03-25T10:24:55.281Z,1.60
2023-03-25T10:27:34.663Z,1.07
2023-03-25T10:30:17.426Z,1.98
2023-03-25T10:32:55.794Z,1.72
2023-03-25T10:35:30.981Z,3.08
2023-03-25T10:38:13.834Z,1.85
2023-03-25T10:40:47.139Z,1.65
2023-03-25T10:43:38.829Z,3.42
2023-03-25T10:46:29.958Z,7.40
2023-03-25T10:49:03.088Z,2.12
2023-03-25T10:51:37.091Z,1.77
2023-03-25T10:54:08.093Z,1.37
2023-03-25T10:56:41.931Z,1.77
2023-03-25T10:59:25.603Z,2.40
2023-03-25T11:01:57.875Z,2.67
2023-03-25T11:04:34.599Z,1.60
2023-03-25T11:07:08.630Z,2.33
2023-03-25T11:09:40.822Z,1.87
2023-03-25T11:12:11.290Z,2.17
2023-03-25T11:14:42.511Z,3.00
2023-03-25T11:17:22.606Z,2.47
2023-03-25T11:20:00.705Z,1.10
2023-03-25T11:22:34.273Z,2.08
2023-03-25T11:25:10.476Z,1.87
2023-03-25T11:27:50.247Z,2.25
2023-03-25T11:30:23.892Z,1.75
2023-03-25T11:33:10.675Z,1.37
2023-03-25T11:35:48.171Z,1.20
2023-03-25T11:38:24.747Z,1.00
2023-03-25T11:40:58.589Z,1.20
2023-03-25T11:43:37.788Z,1.52
2023-03-25T11:46:15.255Z,1.80
2023-03-25T11:48:47.262Z,3.98
2023-03-25T11:51:23.448Z,2.52
2023-03-25T11:54:06.177Z,1.92
2023-03-25T11:56:39.910Z,1.87
2023-03-25T11:59:19.240Z,2.80
2023-03-25T12:01:52.972Z,2.37
2023-03-25T12:04:26.688Z,2.70
2023-03-25T12:07:03.679Z,1.30
2023-03-25T12:09:36.708Z,2.20
2023-03-25T12:12:16.715Z,3.60
2023-03-25T12:14:55.667Z,4.00
2023-03-25T12:17:32.496Z,1.92
2023-03-25T12:20:31.323Z,3.12
2023-03-25T12:23:17.416Z,1.90
2023-03-25T12:25:54.720Z,1.20
2023-03-25T12:28:31.414Z,1.62
2023-03-25T12:31:22.191Z,1.87
2023-03-25T12:34:12.621Z,1.90
2023-03-25T12:37:00.076Z,1.85
2023-03-25T12:39:46.086Z,1.60
2023-03-25T12:42:23.841Z,2.17
2023-03-25T12:45:07.153Z,1.32
2023-03-25T12:47:42.484Z,1.27
2023-03-25T12:50:28.062Z,1.12
2023-03-25T12:53:18.382Z,1.02
2023-03-25T12:56:11.313Z,1.10
2023-03-25T12:59:07.183Z,1.82
2023-03-25T13:01:49.443Z,1.42
2023-03-25T13:04:48.986Z,1.27
2023-03-25T13:07:32.087Z,1.60
2023-03-25T13:10:18.427Z,1.27
2023-03-25T13:12:58.176Z,1.50
2023-03-25T13:15:43.027Z,1.80
2023-03-25T13:18:38.959Z,1.65
2023-03-25T13:21:19.082Z,1.45
2023-03-25T13:23:56.017Z,2.22
2023-03-25T13:26:34.523Z,1.42
2023-03-25T13:29:06.858Z,2.75
2023-03-25T13:31:42.100Z,1.57
2023-03-25T13:34:30.717Z,2.65
2023-03-25T13:37:04.717Z,1.60
2023-03-25T13:39:56.743Z,0.90
2023-03-25T13:42:45.496Z,0.90
2023-03-25T13:45:22.809Z,0.90
2023-03-25T13:48:15.069Z,0.72
2023-03-25T13:50:46.676Z,1.98
2023-03-25T13:53:44.326Z,1.30
2023-03-25T13:56:43.479Z,1.37
2023-03-25T13:59:34.899Z,2.87
2023-03-25T14:02:32.489Z,2.10
2023-03-25T14:05:12.696Z,1.55
2023-03-25T14:08:12.423Z,2.33
2023-03-25T14:10:55.543Z,1.42
2023-03-25T14:13:30.474Z,1.30
2023-03-25T14:16:07.474Z,1.05
2023-03-25T14:18:43.703Z,1.40
2023-03-25T14:21:26.346Z,1.27
2023-03-25T14:24:16.383Z,1.45
2023-03-25T14:26:53.054Z,1.30
2023-03-25T14:29:41.551Z,1.50
2023-03-25T14:32:21.947Z,2.45
2023-03-25T14:34:54.786Z,1.50
2023-03-25T14:37:29.677Z,1.57
2023-03-25T14:40:05.185Z,2.75
2023-03-25T14:42:44.697Z,1.52
2023-03-25T14:45:35.109Z,1.55
2023-03-25T14:48:16.088Z,2.55
2023-03-25T14:50:43.089Z,1.45
2023-03-25T14:53:16.564Z,1.60
2023-03-25T14:55:48.470Z,2.17
2023-03-25T14:58:27.762Z,1.42
2023-03-25T15:01:01.442Z,1.40
2023-03-25T15:03:37.735Z,1.45
2023-03-25T15:06:11.924Z,1.42
2023-03-25T15:08:46.102Z,1.32
2023-03-25T15:11:19.621Z,2.77
2023-03-25T15:13:53.383Z,2.25
2023-03-25T15:16:48.414Z,2.40
2023-03-25T15:19:20.840Z,1.50
2023-03-25T15:22:04.974Z,3.02
2023-03-25T15:24:38.834Z,2.17
2023-03-25T15:27:28.722Z,1.57
2023-03-25T15:30:18.084Z,2.58
2023-03-25T15:33:08.369Z,1.82
2023-03-25T15:35:47.133Z,1.98
2023-03-25T15:38:38.898Z,3.60
2023-03-25T15:41:32.072Z,3.92
2023-03-25T15:44:16.551Z,3.35
2023-03-25T15:47:13.253Z,2.70
2023-03-25T15:49:50.770Z,1.87
2023-03-25T15:52:36.041Z,3.10
2023-03-25T15:55:25.621Z,3.22
2023-03-25T15:58:02.049Z,1.85
2023-03-25T16:00:36.792Z,3.12
2023-03-25T16:03:16.496Z,5.87
2023-03-25T16:05:51.815Z,1.77
2023-03-25T16:08:35.749Z,2.60
2023-03-25T16:11:22.569Z,3.25
2023-03-25T16:14:10.456Z,2.90
2023-03-25T16:16:44.048Z,2.47
2023-03-25T16:19:17.971Z,2.33
2023-03-25T16:21:52.436Z,4.47
2023-03-25T16:24:25.982Z,2.35
2023-03-25T16:26:59.453Z,4.00
2023-03-25T16:29:32.304Z,3.92
2023-03-25T16:32:09.211Z,3.70
2023-03-25T16:34:41.633Z,4.95
2023-03-25T16:37:14.247Z,2.37
2023-03-25T16:39:46.847Z,3.37
2023-03-25T16:42:34.350Z,2.60
2023-03-25T16:45:06.623Z,3.47
2023-03-25T16:47:40.252Z,2.17
2023-03-25T16:50:14.027Z,2.27
2023-03-25T16:52:44.891Z,2.02
2023-03-25T16:55:30.385Z,2.10
2023-03-25T16:58:03.221Z,2.65
2023-03-25T17:00:43.487Z,3.20
2023-03-25T17:03:18.349Z,3.12
2023-03-25T17:05:54.599Z,1.80
2023-03-25T17:08:26.858Z,3.50
2023-03-25T17:11:00.192Z,2.20
2023-03-25T17:13:38.579Z,2.40
2023-03-25T17:16:11.462Z,3.62
2023-03-25T17:18:43.743Z,2.52
2023-03-25T17:21:19.280Z,3.90
2023-03-25T17:23:50.387Z,3.60
2023-03-25T17:26:24.726Z,4.70
2023-03-25T17:28:58.378Z,4.15
2023-03-25T17:31:37.970Z,4.37
2023-03-25T17:34:12.111Z,5.03
2023-03-25T17:36:49.173Z,4.90
2023-03-25T17:39:22.849Z,4.85
2023-03-25T17:42:03.037Z,6.22
2023-03-25T17:44:40.097Z,4.10
2023-03-25T17:47:16.641Z,4.47
2023-03-25T17:49:51.259Z,3.98
2023-03-25T17:52:23.874Z,3.37
2023-03-25T17:54:56.823Z,4.55
2023-03-25T17:57:34.716Z,7.83
2023-03-25T18:00:10.823Z,4.78
2023-03-25T18:02:43.284Z,4.55
2023-03-25T18:05:15.533Z,5.10
2023-03-25T18:07:46.456Z,6.70
2023-03-25T18:10:22.073Z,3.87
2023-03-25T18:12:52.723Z,4.55
2023-03-25T18:15:25.128Z,7.25
2023-03-25T18:17:56.473Z,5.25
2023-03-25T18:20:34.180Z,5.85
2023-03-25T18:23:06.440Z,5.15
2023-03-25T18:25:37.172Z,5.08
2023-03-25T18:28:10.437Z,4.42
2023-03-25T18:30:49.826Z,5.10
2023-03-25T18:33:21.461Z,4.80
2023-03-25T18:35:57.074Z,5.08
2023-03-25T18:38:28.740Z,3.58
2023-03-25T18:40:59.298Z,4.60
2023-03-25T18:43:29.860Z,6.53
2023-03-25T18:46:02.703Z,5.83
2023-03-25T18:48:33.702Z,3.53
2023-03-25T18:51:04.493Z,2.42
2023-03-25T18:53:36.849Z,3.57
2023-03-25T18:56:09.450Z,3.17
2023-03-25T18:58:40.072Z,3.35
2023-03-25T19:01:15.379Z,4.17
2023-03-25T19:03:46.944Z,3.30
2023-03-25T19:06:19.613Z,4.03
2023-03-25T19:08:51.714Z,3.90
2023-03-25T19:11:22.715Z,5.37
2023-03-25T19:13:54.068Z,4.13
2023-03-25T19:16:25.574Z,4.17
2023-03-25T19:18:56.657Z,3.60
2023-03-25T19:21:28.330Z,4.20
2023-03-25T19:23:58.946Z,3.90
2023-03-25T19:26:29.449Z,3.12
2023-03-25T19:29:00.973Z,2.67
2023-03-25T19:31:31.636Z,3.57
2023-03-25T19:34:02.910Z,1.70
2023-03-25T19:36:35.266Z,2.40
2023-03-25T19:39:06.175Z,2.33
2023-03-25T19:41:38.270Z,2.70
2023-03-25T19:44:09.357Z,2.02
2023-03-25T19:46:39.965Z,2.67
2023-03-25T19:49:11.002Z,2.43
2023-03-25T19:51:43.564Z,2.60
2023-03-25T19:54:15.368Z,2.80
2023-03-25T19:56:46.136Z,1.93
2023-03-25T19:59:18.038Z,1.90
2023-03-25T20:01:51.332Z,1.40
2023-03-25T20:04:23.550Z,2.00
2023-03-25T20:06:56.411Z,1.90
2023-03-25T20:09:28.601Z,2.13
2023-03-25T20:11:59.151Z,1.90
2023-03-25T20:14:32.482Z,2.63
2023-03-25T20:17:03.206Z,1.62
2023-03-25T20:19:33.767Z,1.50
2023-03-25T20:22:12.230Z,2.03
2023-03-25T20:24:36.511Z,1.90
2023-03-25T20:27:08.065Z,2.27
2023-03-25T20:29:39.328Z,1.90
2023-03-25T20:32:11.045Z,2.20
2023-03-25T20:34:42.095Z,3.10
2023-03-25T20:37:14.332Z,2.30
2023-03-25T20:39:46.860Z,1.80
2023-03-25T20:42:17.502Z,3.08
2023-03-25T20:44:48.254Z,1.92
2023-03-25T20:47:19.004Z,1.60
2023-03-25T20:49:49.569Z,1.83
2023-03-25T20:52:20.818Z,2.65
2023-03-25T20:54:52.948Z,2.25
2023-03-25T20:57:24.067Z,2.37
2023-03-25T20:59:56.562Z,2.60
2023-03-25T21:02:27.298Z,3.47
2023-03-25T21:04:59.884Z,2.08
2023-03-25T21:07:37.672Z,3.30
2023-03-25T21:10:10.710Z,2.22
2023-03-25T21:12:44.653Z,3.10
2023-03-25T21:15:15.776Z,4.13
2023-03-25T21:17:48.608Z,6.43
2023-03-25T21:20:20.964Z,4.70
2023-03-25T21:22:51.929Z,8.43
2023-03-25T21:25:25.084Z,6.10
2023-03-25T21:27:55.541Z,6.40
2023-03-25T21:30:26.432Z,4.50
2023-03-25T21:32:57.018Z,4.13
2023-03-25T21:35:30.042Z,3.98
2023-03-25T21:38:01.449Z,3.70
2023-03-25T21:40:39.738Z,3.57
2023-03-25T21:43:05.853Z,6.23
2023-03-25T21:45:36.399Z,6.53
2023-03-25T21:48:08.626Z,5.27
2023-03-25T21:50:39.413Z,5.90
2023-03-25T21:53:11.800Z,6.30
2023-03-25T21:55:44.091Z,5.83
2023-03-25T21:58:14.722Z,5.87
2023-03-25T22:00:46.450Z,4.83
2023-03-25T22:03:18.853Z,7.23
2023-03-25T22:05:51.677Z,3.90
2023-03-25T22:08:22.427Z,3.77
2023-03-25T22:10:54.496Z,4.83
2023-03-25T22:13:25.781Z,5.75
2023-03-25T22:15:56.659Z,6.93
2023-03-25T22:18:27.957Z,5.87
2023-03-25T22:21:10.412Z,3.33
2023-03-25T22:23:42.280Z,4.20
2023-03-25T22:26:14.322Z,3.53
2023-03-25T22:28:47.135Z,5.47
2023-03-25T22:31:19.657Z,4.70
2023-03-25T22:33:51.909Z,2.80
2023-03-25T22:36:22.796Z,6.30
2023-03-25T22:38:55.730Z,3.60
2023-03-25T22:41:26.541Z,3.10
2023-03-25T22:44:01.029Z,4.05
2023-03-25T22:46:32.346Z,3.23
2023-03-25T22:49:06.466Z,4.00
2023-03-25T22:51:37.531Z,3.30
2023-03-25T22:54:10.121Z,3.60
2023-03-25T22:56:42.713Z,3.20
2023-03-25T22:59:16.730Z,2.83
2023-03-25T23:01:48.834Z,3.57
2023-03-25T23:04:19.356Z,3.50
2023-03-25T23:07:04.675Z,3.67
2023-03-25T23:09:23.880Z,3.60
2023-03-25T23:11:54.291Z,3.40
2023-03-25T23:14:25.072Z,3.47
2023-03-25T23:16:57.777Z,3.67
2023-03-25T23:19:30.445Z,2.60
2023-03-25T23:22:02.372Z,3.07
2023-03-25T23:24:39.277Z,3.30
2023-03-25T23:27:12.412Z,4.08
2023-03-25T23:29:43.063Z,4.77
2023-03-25T23:32:14.815Z,3.17
2023-03-25T23:34:45.827Z,5.27
2023-03-25T23:37:20.986Z,3.33
2023-03-25T23:39:53.116Z,3.03
2023-03-25T23:42:23.636Z,2.90
2023-03-25T23:44:55.914Z,4.33
2023-03-25T23:47:26.497Z,3.17
2023-03-25T23:49:58.090Z,3.63
2023-03-25T23:52:28.879Z,3.30
2023-03-25T23:54:59.418Z,4.40
2023-03-25T23:57:30.863Z,3.30
